| time (UTC) | temp F | wind direction | speed MPH | gust MPH | rain 1hr in | rain 24hr in | rain mn in | humidity % | barometer mb |
| 20260509180901 | 71 | 165 | 6.0 | 16.0 | 0.00 | 0.00 | 0.00 | 56 | 1006.7 |
| 20260509180402 | 71 | 231 | 6.0 | 16.0 | 0.00 | 0.00 | 0.00 | 55 | 1006.7 |
| 20260509175900 | 71 | 235 | 5.0 | 12.0 | 0.00 | 0.00 | 0.00 | 54 | 1006.8 |
| 20260509175357 | 72 | 194 | 4.0 | 12.0 | 0.00 | 0.00 | 0.00 | 53 | 1006.8 |
| 20260509174857 | 72 | 174 | 4.0 | 13.0 | 0.00 | 0.00 | 0.00 | 53 | 1006.9 |
| 20260509174357 | 72 | 201 | 5.0 | 13.0 | 0.00 | 0.00 | 0.00 | 53 | 1006.9 |
| 20260509173856 | 72 | 222 | 6.0 | 13.0 | 0.00 | 0.00 | 0.00 | 53 | 1006.9 |
| 20260509172857 | 72 | 156 | 5.0 | 12.0 | 0.00 | 0.00 | 0.00 | 53 | 1006.9 |
| 20260509171851 | 71 | 198 | 5.0 | 14.0 | 0.00 | 0.00 | 0.00 | 53 | 1007.0 |
| 20260509170851 | 71 | 188 | 5.0 | 13.0 | 0.00 | 0.00 | 0.00 | 55 | 1007.0 |
| 20260509170352 | 71 | 228 | 4.0 | 13.0 | 0.00 | 0.00 | 0.00 | 55 | 1007.1 |
| 20260509165348 | 71 | 200 | 4.0 | 11.0 | 0.00 | 0.00 | 0.00 | 55 | 1007.1 |
| 20260509164846 | 71 | 246 | 4.0 | 10.0 | 0.00 | 0.00 | 0.00 | 55 | 1007.2 |
| 20260509164341 | 70 | 271 | 5.0 | 13.0 | 0.00 | 0.00 | 0.00 | 55 | 1007.3 |
| 20260509163841 | 70 | 212 | 6.0 | 13.0 | 0.00 | 0.00 | 0.00 | 55 | 1007.3 |
| 20260509162840 | 70 | 217 | 3.0 | 12.0 | 0.00 | 0.00 | 0.00 | 56 | 1007.1 |
| 20260509162340 | 69 | 194 | 5.0 | 14.0 | 0.00 | 0.00 | 0.00 | 56 | 1007.3 |
| 20260509161841 | 69 | 27 | 5.0 | 14.0 | 0.00 | 0.00 | 0.00 | 56 | 1007.3 |
| 20260509161341 | 69 | 250 | 3.0 | 11.0 | 0.00 | 0.00 | 0.00 | 55 | 1007.4 |
| 20260509160841 | 69 | 176 | 4.0 | 15.0 | 0.00 | 0.00 | 0.00 | 56 | 1007.3 |
| 20260509155833 | 70 | 292 | 3.0 | 14.0 | 0.00 | 0.00 | 0.00 | 56 | 1007.4 |
| 20260509155335 | 70 | 193 | 3.0 | 10.0 | 0.00 | 0.00 | 0.00 | 56 | 1007.5 |
| 20260509154832 | 70 | 242 | 4.0 | 16.0 | 0.00 | 0.00 | 0.00 | 56 | 1007.5 |
| 20260509154333 | 70 | 177 | 5.0 | 16.0 | 0.00 | 0.00 | 0.00 | 56 | 1007.6 |
| 20260509153832 | 70 | 167 | 4.0 | 10.0 | 0.00 | 0.00 | 0.00 | 56 | 1007.6 |
| 20260509152829 | 69 | 264 | 5.0 | 11.0 | 0.00 | 0.00 | 0.00 | 58 | 1007.6 |
| 20260509152328 | 69 | 224 | 5.0 | 11.0 | 0.00 | 0.00 | 0.00 | 59 | 1007.5 |
| 20260509151830 | 68 | 115 | 5.0 | 9.0 | 0.00 | 0.00 | 0.00 | 59 | 1007.7 |
| 20260509151329 | 68 | 204 | 4.0 | 9.0 | 0.00 | 0.00 | 0.00 | 59 | 1007.8 |
| 20260509150828 | 68 | 208 | 3.0 | 9.0 | 0.00 | 0.00 | 0.00 | 60 | 1007.8 |
| 20260509150329 | 67 | 256 | 4.0 | 10.0 | 0.00 | 0.00 | 0.00 | 60 | 1008.0 |
| 20260509145829 | 67 | 192 | 4.0 | 10.0 | 0.00 | 0.00 | 0.00 | 61 | 1008.0 |
| 20260509144324 | 65 | 169 | 4.0 | 10.0 | 0.00 | 0.00 | 0.00 | 63 | 1008.2 |
| 20260509143822 | 65 | 159 | 3.0 | 10.0 | 0.00 | 0.00 | 0.00 | 64 | 1008.3 |
| 20260509143320 | 65 | 239 | 3.0 | 9.0 | 0.00 | 0.00 | 0.00 | 64 | 1008.4 |
| 20260509142820 | 64 | 184 | 3.0 | 8.0 | 0.00 | 0.00 | 0.00 | 65 | 1008.4 |
| 20260509142320 | 64 | 231 | 4.0 | 12.0 | 0.00 | 0.00 | 0.00 | 65 | 1008.5 |
| 20260509141822 | 63 | 212 | 5.0 | 12.0 | 0.00 | 0.00 | 0.00 | 66 | 1008.5 |
| 20260509141320 | 63 | 250 | 3.0 | 9.0 | 0.00 | 0.00 | 0.00 | 66 | 1008.5 |
| 20260509140819 | 63 | 139 | 4.0 | 10.0 | 0.00 | 0.00 | 0.00 | 67 | 1008.5 |
| 20260509140319 | 63 | 203 | 4.0 | 10.0 | 0.00 | 0.00 | 0.00 | 67 | 1008.4 |
| 20260509135318 | 63 | 187 | 3.0 | 11.0 | 0.00 | 0.00 | 0.00 | 66 | 1008.4 |
| 20260509134819 | 62 | 211 | 3.0 | 10.0 | 0.00 | 0.00 | 0.00 | 67 | 1008.5 |
| 20260509133313 | 62 | 298 | 4.0 | 12.0 | 0.00 | 0.00 | 0.00 | 68 | 1008.6 |
| 20260509132811 | 61 | 214 | 4.0 | 12.0 | 0.00 | 0.00 | 0.00 | 68 | 1008.5 |
| 20260509132311 | 61 | 238 | 5.0 | 12.0 | 0.00 | 0.00 | 0.00 | 68 | 1008.5 |
| 20260509131310 | 61 | 204 | 6.0 | 15.0 | 0.00 | 0.00 | 0.00 | 68 | 1008.5 |
| 20260509130810 | 61 | 225 | 6.0 | 15.0 | 0.00 | 0.00 | 0.00 | 68 | 1008.5 |
| 20260509125809 | 61 | 190 | 5.0 | 12.0 | 0.00 | 0.00 | 0.00 | 68 | 1008.5 |
| 20260509124808 | 60 | 179 | 5.0 | 14.0 | 0.00 | 0.00 | 0.00 | 69 | 1008.6 |
| 20260509123806 | 60 | 232 | 5.0 | 17.0 | 0.00 | 0.00 | 0.00 | 69 | 1008.5 |
| 20260509123308 | 60 | 248 | 5.0 | 13.0 | 0.00 | 0.00 | 0.00 | 69 | 1008.6 |
| 20260509122806 | 60 | 195 | 5.0 | 12.0 | 0.00 | 0.00 | 0.00 | 68 | 1008.5 |
| 20260509122306 | 60 | 208 | 5.0 | 15.0 | 0.00 | 0.00 | 0.00 | 68 | 1008.5 |
| 20260509121808 | 60 | 156 | 5.0 | 15.0 | 0.00 | 0.00 | 0.00 | 68 | 1008.5 |
| 20260509121302 | 60 | 190 | 4.0 | 11.0 | 0.00 | 0.00 | 0.00 | 68 | 1008.6 |
| 20260509120802 | 60 | 200 | 4.0 | 12.0 | 0.00 | 0.00 | 0.00 | 67 | 1008.6 |
| 20260509120302 | 60 | 221 | 4.0 | 12.0 | 0.00 | 0.00 | 0.00 | 67 | 1008.5 |
| 20260509115306 | 60 | 208 | 4.0 | 12.0 | 0.00 | 0.00 | 0.00 | 65 | 1008.5 |
| 20260509114802 | 60 | 210 | 3.0 | 9.0 | 0.00 | 0.00 | 0.00 | 65 | 1008.5 |
| 20260509114302 | 60 | 101 | 3.0 | 9.0 | 0.00 | 0.00 | 0.00 | 65 | 1008.6 |
| 20260509112254 | 60 | 184 | 4.0 | 10.0 | 0.00 | 0.00 | 0.00 | 62 | 1008.2 |
| 20260509111754 | 60 | 158 | 4.0 | 12.0 | 0.00 | 0.00 | 0.00 | 62 | 1008.3 |
| 20260509110756 | 60 | 203 | 4.0 | 10.0 | 0.00 | 0.00 | 0.00 | 60 | 1008.3 |
| 20260509110254 | 60 | 245 | 4.0 | 10.0 | 0.00 | 0.00 | 0.00 | 60 | 1008.3 |
| 20260509105257 | 60 | 248 | 5.0 | 12.0 | 0.00 | 0.00 | 0.00 | 59 | 1008.3 |
| 20260509104750 | 60 | 235 | 5.0 | 12.0 | 0.00 | 0.00 | 0.00 | 59 | 1008.2 |
| 20260509104248 | 60 | 207 | 4.0 | 10.0 | 0.00 | 0.00 | 0.00 | 59 | 1008.2 |
| 20260509103749 | 60 | 192 | 5.0 | 11.0 | 0.00 | 0.00 | 0.00 | 59 | 1008.2 |
| 20260509102750 | 61 | 145 | 3.0 | 8.0 | 0.00 | 0.00 | 0.00 | 60 | 1008.0 |
| 20260509102250 | 61 | 186 | 3.0 | 9.0 | 0.00 | 0.00 | 0.00 | 60 | 1007.9 |
| 20260509101747 | 61 | 212 | 4.0 | 9.0 | 0.00 | 0.00 | 0.00 | 60 | 1008.0 |
| 20260509101244 | 61 | 221 | 3.0 | 9.0 | 0.00 | 0.00 | 0.00 | 60 | 1008.0 |
| 20260509100744 | 61 | 194 | 2.0 | 9.0 | 0.00 | 0.00 | 0.00 | 60 | 1007.9 |
| 20260509100245 | 61 | 203 | 3.0 | 10.0 | 0.00 | 0.00 | 0.00 | 59 | 1007.9 |
| 20260509095744 | 61 | 167 | 3.0 | 10.0 | 0.00 | 0.00 | 0.00 | 58 | 1007.8 |
| 20260509095245 | 61 | 204 | 2.0 | 7.0 | 0.00 | 0.00 | 0.00 | 59 | 1007.8 |
| 20260509094741 | 61 | 165 | 3.0 | 7.0 | 0.00 | 0.00 | 0.00 | 58 | 1007.8 |
| 20260509094241 | 61 | 280 | 2.0 | 7.0 | 0.00 | 0.00 | 0.00 | 58 | 1007.8 |
| 20260509093736 | 61 | 203 | 2.0 | 8.0 | 0.00 | 0.00 | 0.00 | 57 | 1007.8 |
| 20260509093235 | 61 | 190 | 3.0 | 8.0 | 0.00 | 0.00 | 0.00 | 58 | 1007.9 |
| 20260509092735 | 61 | 252 | 3.0 | 7.0 | 0.00 | 0.00 | 0.00 | 58 | 1008.0 |
| 20260509092237 | 61 | 170 | 3.0 | 7.0 | 0.00 | 0.00 | 0.00 | 58 | 1008.0 |
| 20260509091736 | 61 | 169 | 2.0 | 7.0 | 0.00 | 0.00 | 0.00 | 58 | 1008.0 |
| 20260509091236 | 61 | 186 | 2.0 | 8.0 | 0.00 | 0.00 | 0.00 | 59 | 1008.0 |
| 20260509090732 | 61 | 203 | 3.0 | 8.0 | 0.00 | 0.00 | 0.00 | 59 | 1008.0 |
| 20260509090233 | 61 | 226 | 3.0 | 7.0 | 0.00 | 0.00 | 0.00 | 59 | 1008.0 |
| 20260509085733 | 61 | 197 | 2.0 | 8.0 | 0.00 | 0.00 | 0.00 | 59 | 1008.1 |
| 20260509085236 | 60 | 210 | 3.0 | 8.0 | 0.00 | 0.00 | 0.00 | 59 | 1008.2 |
| 20260509084734 | 60 | 193 | 2.0 | 8.0 | 0.00 | 0.00 | 0.00 | 59 | 1008.2 |
| 20260509084234 | 60 | 212 | 2.0 | 8.0 | 0.00 | 0.00 | 0.00 | 59 | 1008.2 |
| 20260509083227 | 60 | 207 | 3.0 | 9.0 | 0.00 | 0.00 | 0.00 | 59 | 1008.3 |
| 20260509082729 | 60 | 221 | 3.0 | 9.0 | 0.00 | 0.00 | 0.00 | 59 | 1008.3 |
| 20260509082228 | 60 | 187 | 4.0 | 8.0 | 0.00 | 0.00 | 0.00 | 59 | 1008.4 |
| 20260509081727 | 60 | 213 | 3.0 | 10.0 | 0.00 | 0.00 | 0.00 | 58 | 1008.4 |
| 20260509080728 | 61 | 203 | 3.0 | 12.0 | 0.00 | 0.00 | 0.00 | 58 | 1008.6 |
| 20260509080221 | 61 | 169 | 4.0 | 12.0 | 0.00 | 0.00 | 0.00 | 58 | 1008.6 |
| 20260509075721 | 60 | 219 | 4.0 | 14.0 | 0.00 | 0.00 | 0.00 | 59 | 1008.6 |
| 20260509075221 | 60 | 213 | 3.0 | 14.0 | 0.00 | 0.00 | 0.00 | 60 | 1008.7 |
| 20260509074721 | 60 | 155 | 3.0 | 9.0 | 0.00 | 0.00 | 0.00 | 60 | 1008.7 |
| 20260509074221 | 60 | 201 | 3.0 | 11.0 | 0.00 | 0.00 | 0.00 | 60 | 1008.7 |
| 20260509073720 | 60 | 175 | 4.0 | 11.0 | 0.00 | 0.00 | 0.00 | 60 | 1008.8 |
| 20260509073218 | 60 | 203 | 4.0 | 12.0 | 0.00 | 0.00 | 0.00 | 60 | 1008.8 |
| 20260509072717 | 60 | 186 | 4.0 | 12.0 | 0.00 | 0.00 | 0.00 | 60 | 1008.8 |
| 20260509072216 | 60 | 197 | 5.0 | 20.0 | 0.00 | 0.00 | 0.00 | 59 | 1008.7 |
| 20260509071717 | 60 | 163 | 4.0 | 20.0 | 0.00 | 0.00 | 0.00 | 59 | 1008.7 |
| 20260509070718 | 60 | 236 | 3.0 | 11.0 | 0.00 | 0.00 | 0.00 | 59 | 1008.7 |
| 20260509070220 | 60 | 128 | 3.0 | 10.0 | 0.00 | 0.00 | 0.00 | 58 | 1008.7 |
| 20260509065713 | 60 | 211 | 4.0 | 10.0 | 0.00 | 0.00 | 0.00 | 58 | 1008.8 |
| 20260509065213 | 60 | 217 | 4.0 | 10.0 | 0.00 | 0.00 | 0.00 | 57 | 1008.9 |
| 20260509064711 | 60 | 34 | 3.0 | 9.0 | 0.00 | 0.00 | 0.00 | 57 | 1009.0 |
| 20260509064212 | 60 | 210 | 3.0 | 11.0 | 0.00 | 0.00 | 0.00 | 57 | 1009.0 |
| 20260509063711 | 60 | 198 | 3.0 | 11.0 | 0.00 | 0.00 | 0.00 | 57 | 1009.1 |
| 20260509063212 | 60 | 244 | 3.0 | 7.0 | 0.00 | 0.00 | 0.00 | 57 | 1009.1 |
| 20260509062209 | 60 | 203 | 3.0 | 8.0 | 0.00 | 0.00 | 0.00 | 56 | 1009.1 |
| 20260509061708 | 60 | 203 | 4.0 | 12.0 | 0.00 | 0.00 | 0.00 | 56 | 1009.1 |
| 20260509060708 | 60 | 167 | 3.0 | 11.0 | 0.00 | 0.00 | 0.00 | 56 | 1009.0 |
| 20260509060208 | 60 | 213 | 3.0 | 9.0 | 0.00 | 0.00 | 0.00 | 56 | 1009.0 |
| 20260509055709 | 60 | 240 | 3.0 | 8.0 | 0.00 | 0.00 | 0.00 | 56 | 1009.1 |
| 20260509055206 | 60 | 187 | 2.0 | 8.0 | 0.00 | 0.00 | 0.00 | 56 | 1009.1 |
| 20260509054706 | 60 | 193 | 2.0 | 11.0 | 0.00 | 0.00 | 0.00 | 56 | 1009.1 |
| 20260509054206 | 60 | 195 | 3.0 | 11.0 | 0.00 | 0.00 | 0.00 | 56 | 1009.2 |
| 20260509053705 | 60 | 215 | 2.0 | 8.0 | 0.00 | 0.00 | 0.00 | 56 | 1009.2 |
| 20260509053203 | 60 | 205 | 2.0 | 8.0 | 0.00 | 0.00 | 0.00 | 56 | 1009.2 |
| 20260509052704 | 60 | 184 | 2.0 | 6.0 | 0.00 | 0.00 | 0.00 | 56 | 1009.3 |
| 20260509052156 | 60 | 183 | 2.0 | 7.0 | 0.00 | 0.00 | 0.00 | 56 | 1009.1 |
| 20260509051657 | 60 | 207 | 3.0 | 7.0 | 0.00 | 0.00 | 0.00 | 55 | 1009.2 |
| 20260509051157 | 60 | 153 | 3.0 | 9.0 | 0.00 | 0.00 | 0.00 | 55 | 1009.2 |
| 20260509050657 | 60 | 193 | 3.0 | 9.0 | 0.00 | 0.00 | 0.00 | 55 | 1009.2 |
| 20260509050157 | 60 | 224 | 3.0 | 7.0 | 0.00 | 0.00 | 0.00 | 55 | 1009.2 |
| 20260509045657 | 60 | 184 | 3.0 | 8.0 | 0.00 | 0.00 | 0.00 | 55 | 1009.2 |
| 20260509044652 | 60 | 177 | 3.0 | 8.0 | 0.00 | 0.00 | 0.00 | 55 | 1009.2 |
| 20260509044152 | 60 | 225 | 2.0 | 8.0 | 0.00 | 0.00 | 0.00 | 55 | 1009.2 |
| 20260509043654 | 60 | 204 | 2.0 | 6.0 | 0.00 | 0.00 | 0.00 | 54 | 1009.1 |
| 20260509043153 | 60 | 225 | 2.0 | 6.0 | 0.00 | 0.00 | 0.00 | 54 | 1009.2 |
| 20260509042145 | 60 | 194 | 2.0 | 9.0 | 0.00 | 0.00 | 0.00 | 54 | 1009.3 |
| 20260509041645 | 61 | 192 | 3.0 | 9.0 | 0.00 | 0.00 | 0.00 | 53 | 1009.2 |
| 20260509041144 | 61 | 186 | 2.0 | 5.0 | 0.00 | 0.00 | 0.00 | 53 | 1009.3 |
| 20260509040645 | 61 | 197 | 3.0 | 7.0 | 0.00 | 0.00 | 0.00 | 53 | 1009.2 |
| 20260509040146 | 61 | 231 | 4.0 | 8.0 | 0.00 | 0.00 | 0.00 | 52 | 1009.3 |
| 20260509035645 | 61 | 201 | 3.0 | 8.0 | 0.00 | 0.00 | 0.00 | 52 | 1009.3 |
| 20260509035137 | 61 | 200 | 3.0 | 7.0 | 0.00 | 0.00 | 0.00 | 52 | 1009.4 |
| 20260509034638 | 62 | 198 | 2.0 | 9.0 | 0.00 | 0.00 | 0.00 | 51 | 1009.3 |
| 20260509033637 | 62 | 245 | 3.0 | 7.0 | 0.00 | 0.00 | 0.00 | 51 | 1009.3 |
| 20260509033139 | 62 | 222 | 2.0 | 7.0 | 0.00 | 0.00 | 0.00 | 51 | 1009.3 |
| 20260509032637 | 62 | 215 | 2.0 | 6.0 | 0.00 | 0.00 | 0.00 | 51 | 1009.4 |
| 20260509032131 | 62 | 142 | 2.0 | 6.0 | 0.00 | 0.00 | 0.00 | 50 | 1009.4 |
| 20260509031134 | 63 | 203 | 2.0 | 5.0 | 0.00 | 0.00 | 0.00 | 50 | 1009.5 |
| 20260509030632 | 63 | 203 | 2.0 | 7.0 | 0.00 | 0.00 | 0.00 | 49 | 1009.5 |
| 20260509030132 | 63 | 203 | 2.0 | 7.0 | 0.00 | 0.00 | 0.00 | 49 | 1009.5 |
| 20260509025631 | 63 | 211 | 2.0 | 7.0 | 0.00 | 0.00 | 0.00 | 49 | 1009.6 |
| 20260509025127 | 63 | 153 | 1.0 | 7.0 | 0.00 | 0.00 | 0.00 | 49 | 1009.6 |
| 20260509024628 | 63 | 212 | 1.0 | 3.0 | 0.00 | 0.00 | 0.00 | 50 | 1009.6 |
| 20260509024125 | 64 | 207 | 1.0 | 4.0 | 0.00 | 0.00 | 0.00 | 51 | 1009.5 |
| 20260509023126 | 64 | 225 | 1.0 | 3.0 | 0.00 | 0.00 | 0.00 | 51 | 1009.5 |
| 20260509022628 | 64 | 211 | 0.0 | 3.0 | 0.00 | 0.00 | 0.00 | 50 | 1009.5 |
| 20260509022123 | 64 | 155 | 1.0 | 3.0 | 0.00 | 0.00 | 0.00 | 50 | 1009.4 |
| 20260509021625 | 64 | 273 | 1.0 | 3.0 | 0.00 | 0.00 | 0.00 | 50 | 1009.4 |
| 20260509021124 | 64 | 208 | 1.0 | 4.0 | 0.00 | 0.00 | 0.00 | 49 | 1009.3 |
| 20260509020625 | 65 | 197 | 1.0 | 6.0 | 0.00 | 0.00 | 0.00 | 48 | 1009.3 |
| 20260509020124 | 64 | 236 | 1.0 | 6.0 | 0.00 | 0.00 | 0.00 | 48 | 1009.2 |
| 20260509015624 | 65 | 200 | 1.0 | 4.0 | 0.00 | 0.00 | 0.00 | 48 | 1009.2 |
| 20260509015125 | 65 | 203 | 2.0 | 8.0 | 0.00 | 0.00 | 0.00 | 47 | 1009.3 |
| 20260509014617 | 65 | 214 | 2.0 | 8.0 | 0.00 | 0.00 | 0.00 | 47 | 1009.3 |
| 20260509014117 | 65 | 200 | 1.0 | 4.0 | 0.00 | 0.00 | 0.00 | 47 | 1009.1 |
| 20260509013618 | 65 | 211 | 1.0 | 4.0 | 0.00 | 0.00 | 0.00 | 46 | 1009.2 |
| 20260509013118 | 65 | 217 | 1.0 | 6.0 | 0.00 | 0.00 | 0.00 | 46 | 1009.2 |
| 20260509012619 | 66 | 219 | 2.0 | 6.0 | 0.00 | 0.00 | 0.00 | 46 | 1009.3 |
| 20260509012120 | 66 | 221 | 2.0 | 6.0 | 0.00 | 0.00 | 0.00 | 45 | 1009.2 |
| 20260509011613 | 66 | 217 | 1.0 | 6.0 | 0.00 | 0.00 | 0.00 | 45 | 1009.1 |
| 20260509011113 | 66 | 212 | 1.0 | 3.0 | 0.00 | 0.00 | 0.00 | 44 | 1009.1 |
| 20260509010613 | 66 | 217 | 2.0 | 7.0 | 0.00 | 0.00 | 0.00 | 44 | 1009.0 |
| 20260509005614 | 67 | 222 | 2.0 | 6.0 | 0.00 | 0.00 | 0.00 | 42 | 1009.0 |
| 20260509005113 | 67 | 181 | 2.0 | 7.0 | 0.00 | 0.00 | 0.00 | 42 | 1008.9 |
| 20260509004614 | 67 | 225 | 3.0 | 7.0 | 0.00 | 0.00 | 0.00 | 42 | 1008.9 |
| 20260509004110 | 67 | 212 | 3.0 | 9.0 | 0.00 | 0.00 | 0.00 | 41 | 1008.9 |
| 20260509003609 | 68 | 198 | 3.0 | 9.0 | 0.00 | 0.00 | 0.00 | 41 | 1008.8 |
| 20260509003110 | 68 | 198 | 2.0 | 7.0 | 0.00 | 0.00 | 0.00 | 41 | 1008.8 |
| 20260509002609 | 68 | 225 | 2.0 | 7.0 | 0.00 | 0.00 | 0.00 | 40 | 1008.7 |
| 20260509002109 | 68 | 219 | 2.0 | 8.0 | 0.00 | 0.00 | 0.00 | 40 | 1008.7 |
| 20260509001111 | 68 | 148 | 4.0 | 10.0 | 0.00 | 0.00 | 0.00 | 40 | 1008.6 |
| 20260509000106 | 69 | 229 | 6.0 | 14.0 | 0.00 | 0.00 | 0.00 | 40 | 1008.5 |
| 20260508235602 | 69 | 127 | 5.0 | 14.0 | 0.00 | 0.00 | 0.00 | 39 | 1008.4 |
| 20260508234559 | 69 | 159 | 4.0 | 10.0 | 0.00 | 0.00 | 0.00 | 40 | 1008.4 |
| 20260508234100 | 69 | 221 | 4.0 | 13.0 | 0.00 | 0.00 | 0.00 | 40 | 1008.4 |
| 20260508233553 | 69 | 210 | 4.0 | 13.0 | 0.00 | 0.00 | 0.00 | 39 | 1008.4 |
| 20260508233053 | 69 | 156 | 3.0 | 8.0 | 0.00 | 0.00 | 0.00 | 39 | 1008.3 |
| 20260508232553 | 69 | 181 | 3.0 | 11.0 | 0.00 | 0.00 | 0.00 | 39 | 1008.3 |
| 20260508232052 | 69 | 186 | 3.0 | 11.0 | 0.00 | 0.00 | 0.00 | 39 | 1008.3 |
| 20260508231054 | 70 | 181 | 4.0 | 9.0 | 0.00 | 0.00 | 0.00 | 37 | 1008.3 |
| 20260508230553 | 70 | 193 | 3.0 | 9.0 | 0.00 | 0.00 | 0.00 | 37 | 1008.3 |
| 20260508230047 | 70 | 246 | 3.0 | 8.0 | 0.00 | 0.00 | 0.00 | 37 | 1008.2 |
| 20260508225546 | 70 | 174 | 4.0 | 14.0 | 0.00 | 0.00 | 0.00 | 37 | 1008.0 |
| 20260508225047 | 70 | 177 | 5.0 | 14.0 | 0.00 | 0.00 | 0.00 | 36 | 1008.1 |
| 20260508224547 | 70 | 221 | 3.0 | 12.0 | 0.00 | 0.00 | 0.00 | 36 | 1008.1 |
| 20260508224047 | 70 | 226 | 2.0 | 11.0 | 0.00 | 0.00 | 0.00 | 36 | 1008.0 |
| 20260508223547 | 70 | 151 | 3.0 | 9.0 | 0.00 | 0.00 | 0.00 | 36 | 1008.1 |
| 20260508223050 | 70 | 219 | 5.0 | 11.0 | 0.00 | 0.00 | 0.00 | 36 | 1008.2 |
| 20260508222039 | 70 | 221 | 5.0 | 12.0 | 0.00 | 0.00 | 0.00 | 35 | 1008.2 |
| 20260508221540 | 70 | 200 | 3.0 | 12.0 | 0.00 | 0.00 | 0.00 | 36 | 1008.3 |
| 20260508221037 | 70 | 172 | 3.0 | 11.0 | 0.00 | 0.00 | 0.00 | 36 | 1008.2 |
| 20260508220538 | 71 | 215 | 3.0 | 12.0 | 0.00 | 0.00 | 0.00 | 35 | 1008.2 |
| 20260508220038 | 71 | 217 | 3.0 | 12.0 | 0.00 | 0.00 | 0.00 | 33 | 1008.1 |
| 20260508215536 | 71 | 225 | 3.0 | 9.0 | 0.00 | 0.00 | 0.00 | 31 | 1008.1 |
| 20260508214536 | 71 | 204 | 3.0 | 10.0 | 0.00 | 0.00 | 0.00 | 31 | 1008.1 |
| 20260508214035 | 71 | 211 | 2.0 | 6.0 | 0.00 | 0.00 | 0.00 | 31 | 1008.1 |
| 20260508213536 | 71 | 326 | 2.0 | 6.0 | 0.00 | 0.00 | 0.00 | 31 | 1008.2 |
| 20260508213034 | 71 | 321 | 3.0 | 8.0 | 0.00 | 0.00 | 0.00 | 31 | 1008.2 |
| 20260508212532 | 71 | 173 | 3.0 | 8.0 | 0.00 | 0.00 | 0.00 | 30 | 1008.2 |
| 20260508212025 | 72 | 201 | 3.0 | 12.0 | 0.00 | 0.00 | 0.00 | 30 | 1008.2 |
| 20260508211527 | 71 | 259 | 4.0 | 12.0 | 0.00 | 0.00 | 0.00 | 30 | 1008.2 |
| 20260508211026 | 71 | 163 | 3.0 | 10.0 | 0.00 | 0.00 | 0.00 | 30 | 1008.2 |
| 20260508210525 | 72 | 283 | 2.0 | 10.0 | 0.00 | 0.00 | 0.00 | 30 | 1008.1 |
| 20260508210025 | 71 | 212 | 3.0 | 11.0 | 0.00 | 0.00 | 0.00 | 30 | 1008.1 |
| 20260508205526 | 71 | 170 | 3.0 | 11.0 | 0.00 | 0.00 | 0.00 | 30 | 1008.2 |
| 20260508205028 | 71 | 302 | 3.0 | 9.0 | 0.00 | 0.00 | 0.00 | 31 | 1008.2 |
| 20260508204519 | 72 | 340 | 3.0 | 11.0 | 0.00 | 0.00 | 0.00 | 30 | 1008.2 |
| 20260508204016 | 72 | 172 | 5.0 | 11.0 | 0.00 | 0.00 | 0.00 | 30 | 1008.4 |
| 20260508203518 | 73 | 186 | 5.0 | 12.0 | 0.00 | 0.00 | 0.00 | 29 | 1008.4 |
| 20260508203014 | 73 | 203 | 5.0 | 14.0 | 0.00 | 0.00 | 0.00 | 29 | 1008.4 |
| 20260508202516 | 72 | 189 | 4.0 | 14.0 | 0.00 | 0.00 | 0.00 | 29 | 1008.5 |
| 20260508201512 | 73 | 172 | 6.0 | 14.0 | 0.00 | 0.00 | 0.00 | 29 | 1008.5 |
| 20260508201015 | 73 | 181 | 5.0 | 11.0 | 0.00 | 0.00 | 0.00 | 30 | 1008.5 |
| 20260508200514 | 73 | 189 | 5.0 | 13.0 | 0.00 | 0.00 | 0.00 | 30 | 1008.6 |
| 20260508200014 | 73 | 204 | 4.0 | 13.0 | 0.00 | 0.00 | 0.00 | 30 | 1008.6 |
| 20260508195514 | 73 | 245 | 2.0 | 12.0 | 0.00 | 0.00 | 0.00 | 29 | 1008.8 |
| 20260508195013 | 73 | 220 | 1.0 | 7.0 | 0.00 | 0.00 | 0.00 | 31 | 1008.8 |
| 20260508194512 | 72 | 166 | 3.0 | 11.0 | 0.00 | 0.00 | 0.00 | 32 | 1008.9 |
| 20260508193510 | 72 | 224 | 4.0 | 11.0 | 0.00 | 0.00 | 0.00 | 30 | 1009.1 |
| 20260508193011 | 73 | 302 | 5.0 | 14.0 | 0.00 | 0.00 | 0.00 | 30 | 1009.2 |
| 20260508192010 | 73 | 238 | 5.0 | 12.0 | 0.00 | 0.00 | 0.00 | 30 | 1009.5 |
| 20260508191509 | 73 | 229 | 4.0 | 12.0 | 0.00 | 0.00 | 0.00 | 30 | 1009.4 |
| 20260508191008 | 74 | 174 | 4.0 | 10.0 | 0.00 | 0.00 | 0.00 | 30 | 1009.5 |
| 20260508190510 | 74 | 285 | 5.0 | 19.0 | 0.00 | 0.00 | 0.00 | 30 | 1009.6 |
| 20260508185506 | 73 | 205 | 5.0 | 13.0 | 0.00 | 0.00 | 0.00 | 29 | 1009.7 |
| 20260508185007 | 72 | 200 | 4.0 | 13.0 | 0.00 | 0.00 | 0.00 | 30 | 1009.6 |
| 20260508184506 | 72 | 86 | 3.0 | 12.0 | 0.00 | 0.00 | 0.00 | 30 | 1009.7 |
| 20260508183009 | 71 | 224 | 3.0 | 11.0 | 0.00 | 0.00 | 0.00 | 32 | 1010.0 |
| 20260508182509 | 72 | 217 | 4.0 | 12.0 | 0.00 | 0.00 | 0.00 | 31 | 1010.0 |
| 20260508182002 | 72 | 224 | 4.0 | 12.0 | 0.00 | 0.00 | 0.00 | 31 | 1009.9 |
| 20260508181500 | 72 | 242 | 4.0 | 12.0 | 0.00 | 0.00 | 0.00 | 31 | 1010.1 |